This is the latest recevied weather packets stored in our database for station/object N4CRH-13. If no packets are shown the sender has not sent any weather packets the latest 10 day(s).
| Time | Temp. | Humidity | Pressure | Rain* | Wind** | Luminosity | Snow |
|---|---|---|---|---|---|---|---|
| 1777647558 | 5.56° C | 70% | 1298.7 hPa | 0 mm | - | 528 W/m² | - |
| 1777646344 | 5° C | 79% | 1299 hPa | 0 mm | - | 310 W/m² | - |
| 1777646041 | 5° C | 82% | 1299 hPa | 0 mm | - | 231 W/m² | - |
| 1777645738 | 4.44° C | 82% | 1298.7 hPa | 0 mm | - | 169 W/m² | - |
| 1777645435 | 4.44° C | 88% | 1298.7 hPa | 0 mm | - | 139 W/m² | - |
| 1777645130 | 4.44° C | 89% | 1298.8 hPa | 0 mm | - | 136 W/m² | - |
| 1777644827 | 3.89° C | 94% | 1298.5 hPa | 0 mm | - | 102 W/m² | - |
| 1777644525 | 3.89° C | 94% | 1298.5 hPa | 0 mm | - | 102 W/m² | - |
| 1777644221 | 3.89° C | 94% | 1298.5 hPa | 0 mm | - | 102 W/m² | - |
| 1777643917 | 3.33° C | 94% | 1298.8 hPa | 0 mm | - | 94 W/m² | - |
| 1777643616 | 3.33° C | 94% | 1298.6 hPa | 0 mm | - | 87 W/m² | - |
| 1777642980 | 1.67° C | 95% | 1298.6 hPa | 0 mm | - | 98 W/m² | - |
| 1777642675 | 1.67° C | 95% | 1298.6 hPa | 0 mm | - | 98 W/m² | - |
| 1777642373 | 1.67° C | 96% | 1298.5 hPa | 0 mm | - | 101 W/m² | - |
| 1777642069 | 1.67° C | 96% | 1298.6 hPa | 0 mm | - | 92 W/m² | - |
| 1777641765 | 0.56° C | 96% | 1298.4 hPa | 0 mm | - | 93 W/m² | - |
| 1777641460 | 0.56° C | 96% | 1298.4 hPa | 0 mm | - | 93 W/m² | - |
| 1777641156 | 0.56° C | 97% | 1298.5 hPa | 0 mm | - | 91 W/m² | - |
| 1777640852 | -0.56° C | 97% | 1298.6 hPa | 0 mm | - | 88 W/m² | - |
| 1777640549 | -0.56° C | 97% | 1298.2 hPa | 0 mm | - | 77 W/m² | - |
| 1777640246 | 0° C | 97% | 1298.1 hPa | 0 mm | - | 66 W/m² | - |
| 1777638723 | -2.22° C | 97% | 1298.1 hPa | 0 mm | - | 18 W/m² | - |
| 1777638419 | -2.22° C | 97% | 1298.2 hPa | 0 mm | - | 15 W/m² | - |
| 1777638116 | -2.78° C | 97% | 1297.9 hPa | 0 mm | - | 12 W/m² | - |
| 1777637812 | -2.78° C | 98% | 1298.1 hPa | 0 mm | - | 9 W/m² | - |
* Rain latest hour (hover to see other rain measurements)
** Current wind speed in m/s (hover to see current wind gust speed)